Time;durP1;ratioP1;P1;durP2;ratioP2;P2;SDS_P1;SDS_P2;PMS_P1;PMS_P2;Temp;Humidity;BMP_temperature;BMP_pressure;BME280_temperature;BME280_humidity;BME280_pressure;Samples;Min_cycle;Max_cycle;Signal;HPM_P1;HPM_P2
2023/01/13 00:01:26;;;;;;;0.95;0.30;;;10.20;99.90;;;8.69;100.00;99613.63;4979959;28;20075;-83
2023/01/13 00:03:52;;;;;;;0.60;0.22;;;10.20;99.90;;;8.70;100.00;99612.69;4976394;28;20035;-85
2023/01/13 00:06:26;;;;;;;1.00;0.20;;;10.20;99.90;;;8.69;100.00;99614.47;4975251;28;20032;-85
2023/01/13 00:08:53;;;;;;;0.70;0.32;;;10.20;99.90;;;8.71;100.00;99614.41;4978222;28;20076;-83
2023/01/13 00:11:19;;;;;;;0.80;0.30;;;10.20;99.90;;;8.72;100.00;99614.28;4990524;28;20090;-85
2023/01/13 00:13:53;;;;;;;0.45;0.30;;;;;;;8.71;100.00;99617.84;4976872;28;20037;-84
2023/01/13 00:16:19;;;;;;;1.13;0.47;;;10.20;99.90;;;8.69;100.00;99609.22;5012382;28;20611;-84
2023/01/13 00:18:46;;;;;;;0.77;0.28;;;10.20;99.90;;;8.74;100.00;99611.59;4974338;28;20057;-84
2023/01/13 00:21:21;;;;;;;1.58;0.38;;;10.20;99.90;;;8.72;100.00;99608.19;4977162;28;20058;-84
2023/01/13 00:23:49;;;;;;;0.47;0.20;;;10.10;99.90;;;8.69;100.00;99603.97;4995507;28;20044;-84
2023/01/13 00:26:21;;;;;;;0.20;0.20;;;10.10;99.90;;;8.70;100.00;99602.19;4993929;28;20022;-84
2023/01/13 00:28:54;;;;;;;1.02;0.30;;;10.10;99.90;;;8.71;100.00;99606.53;4978882;28;20034;-84
2023/01/13 00:31:20;;;;;;;2.10;0.40;;;10.10;99.90;;;8.71;100.00;99609.16;4979482;28;20502;-84
2023/01/13 00:33:50;;;;;;;0.88;0.30;;;10.10;99.90;;;8.68;100.00;99612.75;4978040;28;20034;-86
2023/01/13 00:36:18;;;;;;;2.83;0.43;;;10.10;99.90;;;8.71;100.00;99612.59;4995914;28;20033;-84
2023/01/13 00:38:44;;;;;;;1.60;0.28;;;10.10;99.90;;;8.70;100.00;99604.81;4977353;28;20034;-84
2023/01/13 00:41:16;;;;;;;0.70;0.20;;;10.20;99.90;;;8.69;100.00;99609.22;4993265;28;20030;-83
2023/01/13 00:43:44;;;;;;;0.63;0.28;;;10.10;99.90;;;8.68;100.00;99618.00;4976564;28;20036;-84
2023/01/13 00:46:18;;;;;;;2.15;0.20;;;10.10;99.90;;;8.70;100.00;99616.16;4994229;28;20033;-84
2023/01/13 00:48:46;;;;;;;1.55;0.20;;;10.10;99.90;;;8.71;100.00;99614.41;4995173;28;20038;-85
2023/01/13 00:51:20;;;;;;;0.28;0.17;;;10.10;99.90;;;8.72;100.00;99622.16;4968466;28;20018;-84
2023/01/13 00:53:49;;;;;;;4.70;0.22;;;10.10;99.90;;;8.71;100.00;99615.22;4971058;28;20117;-84
2023/01/13 00:56:36;;;;;;;0.93;0.45;;;10.10;99.90;;;8.71;100.00;99619.63;4977170;28;20029;-82
2023/01/13 00:59:02;;;;;;;0.93;0.30;;;10.10;99.90;;;8.70;100.00;99631.06;4993550;28;20037;-84
2023/01/13 01:01:31;;;;;;;1.27;0.25;;;10.10;99.90;;;8.69;100.00;99627.59;4994040;28;20451;-84
2023/01/13 01:04:00;;;;;;;0.43;0.20;;;10.00;99.90;;;8.72;100.00;99637.91;4976767;28;20026;-84
2023/01/13 01:06:27;;;;;;;1.90;0.30;;;10.10;99.90;;;8.72;100.00;99637.06;5007336;28;20017;-84
2023/01/13 01:09:03;;;;;;;1.67;0.20;;;10.10;99.90;;;8.65;100.00;99633.94;5011092;28;20046;-84
2023/01/13 01:11:31;;;;;;;1.98;0.30;;;10.10;99.90;;;8.65;100.00;99628.69;5006074;28;20038;-84
2023/01/13 01:14:09;;;;;;;2.30;0.30;;;10.10;99.90;;;8.65;100.00;99626.06;4997562;28;20029;-84
2023/01/13 01:16:38;;;;;;;2.58;0.68;;;10.10;99.90;;;8.67;100.00;99626.00;4993439;28;21270;-84
2023/01/13 01:19:06;;;;;;;2.35;0.28;;;10.10;99.90;;;8.67;100.00;99621.59;4997453;28;20076;-83
2023/01/13 01:21:35;;;;;;;0.63;0.20;;;10.10;99.90;;;8.67;100.00;99632.06;4994633;28;20022;-83
2023/01/13 01:24:03;;;;;;;2.38;0.35;;;10.10;99.90;;;8.69;100.00;99632.00;4998617;28;20062;-84
2023/01/13 01:26:30;;;;;;;0.38;0.30;;;10.10;99.90;;;8.69;100.00;99632.84;4995855;28;20032;-83
2023/01/13 01:29:03;;;;;;;1.08;0.50;;;10.20;99.90;;;8.73;100.00;99631.75;4977939;28;20026;-84
2023/01/13 01:31:32;;;;;;;3.08;0.40;;;10.20;99.90;;;8.72;100.00;99630.03;4981584;28;20033;-84
2023/01/13 01:33:59;;;;;;;3.22;0.60;;;10.20;99.90;;;8.74;100.00;99625.53;4995731;28;20037;-84
2023/01/13 01:36:30;;;;;;;0.93;0.50;;;10.20;99.90;;;8.75;100.00;99629.88;4998720;28;20220;-84
2023/01/13 01:38:58;;;;;;;1.48;0.30;;;10.20;99.90;;;8.75;100.00;99632.50;4994928;28;20026;-83
2023/01/13 01:41:32;;;;;;;4.90;0.40;;;10.20;99.90;;;8.74;100.00;99630.78;4994443;28;20034;-83
2023/01/13 01:44:27;;;;;;;0.95;0.20;;;10.20;99.90;;;8.75;100.00;99622.00;4996955;28;20034;-83
2023/01/13 01:46:55;;;;;;;0.57;0.30;;;10.20;99.90;;;8.76;100.00;99631.56;4981425;28;21331;-83
2023/01/13 01:49:32;;;;;;;0.75;0.50;;;10.20;99.90;;;8.78;100.00;99621.81;4980260;28;20041;-82
2023/01/13 01:52:27;;;;;;;0.65;0.40;;;10.20;99.90;;;8.75;100.00;99627.25;4977887;28;20109;-83
2023/01/13 01:55:13;;;;;;;1.08;0.50;;;10.20;99.90;;;8.76;100.00;99623.69;4992738;28;20038;-83
2023/01/13 01:58:04;;;;;;;1.55;0.40;;;10.20;99.90;;;8.74;100.00;99616.84;5012875;28;20034;-82
2023/01/13 02:00:30;;;;;;;0.38;0.30;;;10.20;99.90;;;8.76;100.00;99612.34;4981747;28;20113;-83
2023/01/13 02:02:58;;;;;;;0.43;0.30;;;10.30;99.90;;;8.77;100.00;99621.94;4993325;28;20044;-83
2023/01/13 02:05:26;;;;;;;0.30;0.30;;;10.20;99.90;;;8.78;100.00;99613.09;4993771;28;20026;-82
2023/01/13 02:07:59;;;;;;;0.90;0.38;;;10.20;99.90;;;8.81;100.00;99623.41;4979262;28;20375;-82
2023/01/13 02:10:31;;;;;;;0.75;0.38;;;10.20;99.90;;;8.80;100.00;99612.06;4996544;28;20034;-83
2023/01/13 02:13:04;;;;;;;2.10;0.40;;;10.30;99.90;;;8.85;100.00;99613.59;4977239;28;20033;-81
2023/01/13 02:15:55;;;;;;;1.40;0.50;;;10.20;99.90;;;8.83;100.00;99611.06;4991470;28;20038;-82
2023/01/13 02:18:26;;;;;;;0.57;0.40;;;10.30;99.90;;;8.86;100.00;99610.06;5009200;28;20060;-83
2023/01/13 02:21:18;;;;;;;0.40;0.40;;;10.30;99.90;;;8.86;100.00;99604.81;5009805;28;20038;-81
2023/01/13 02:27:36;;;;;;;1.75;1.05;;;10.30;99.90;;;8.86;100.00;99602.19;5008136;28;20170;-83
2023/01/13 02:33:49;;;;;;;0.20;0.20;;;10.30;99.90;;;8.75;100.00;99601.00;5008441;28;20052;-82
2023/01/13 02:36:48;;;;;;;0.30;0.20;;;10.70;99.90;;;8.72;100.00;99601.16;4993938;28;20054;-81
2023/01/13 02:39:35;;;;;;;0.35;0.35;;;10.20;99.90;;;8.70;100.00;99600.41;4994961;28;20045;-81
2023/01/13 02:45:05;;;;;;;;;;;10.20;99.90;;;8.68;100.00;99590.94;4994951;28;20065;-82
2023/01/13 02:47:38;;;;;;;0.70;0.30;;;10.10;99.90;;;8.67;100.00;99581.38;4996664;28;19909;-81
2023/01/13 02:50:12;;;;;;;4.80;0.38;;;10.10;99.90;;;8.68;100.00;99589.16;4997350;28;20033;-82
2023/01/13 02:52:53;;;;;;;0.80;0.30;;;10.20;99.90;;;8.67;100.00;99582.22;4978313;28;20567;-82
2023/01/13 02:55:35;;;;;;;0.55;0.45;;;10.10;99.90;;;8.67;100.00;99584.00;5013405;28;20034;-82
2023/01/13 02:58:07;;;;;;;1.95;0.85;;;10.10;99.90;;;8.70;100.00;99579.41;4997581;28;21208;-82
2023/01/13 03:00:35;;;;;;;3.92;0.90;;;10.20;99.90;;;8.72;100.00;99577.53;4996163;28;20026;-82
2023/01/13 03:03:02;;;;;;;3.30;0.73;;;10.20;99.90;;;8.71;100.00;99575.88;4995165;28;20026;-82
2023/01/13 03:05:32;;;;;;;1.98;1.00;;;10.20;99.90;;;8.76;100.00;99578.22;4979052;28;20042;-82
2023/01/13 03:08:17;;;;;;;3.58;0.85;;;10.20;99.90;;;8.75;100.00;99572.13;4980759;28;20030;-82
2023/01/13 03:11:11;;;;;;;1.55;0.90;;;10.20;99.90;;;8.76;100.00;99571.19;5014026;28;20502;-81
2023/01/13 03:13:43;;;;;;;1.00;0.90;;;10.20;99.90;;;8.77;100.00;99577.31;5013105;28;20034;-83
2023/01/13 03:16:50;;;;;;;2.15;1.00;;;10.20;99.90;;;8.78;100.00;99558.81;5012455;28;20057;-82
2023/01/13 03:19:42;;;;;;;1.48;0.93;;;10.20;99.90;;;8.79;100.00;99568.41;4993127;28;20030;-82
2023/01/13 03:22:55;;;;;;;2.00;0.93;;;10.20;99.90;;;8.79;100.00;99568.41;5013156;28;20080;-83
2023/01/13 03:25:40;;;;;;;5.97;2.00;;;10.30;99.90;;;8.80;100.00;99577.13;4974633;28;20573;-81
2023/01/13 03:28:28;;;;;;;1.08;0.80;;;10.30;99.90;;;8.83;100.00;99575.16;4938448;28;20035;-81
2023/01/13 03:31:10;;;;;;;1.00;0.80;;;10.30;99.90;;;8.86;100.00;99583.81;4972565;28;20057;-82
2023/01/13 03:33:46;;;;;;;1.00;0.90;;;10.30;99.90;;;8.82;100.00;99586.59;4998160;28;20044;-82
2023/01/13 03:36:13;;;;;;;;;;;10.30;99.90;;;8.76;100.00;99583.47;4995758;28;20080;-82
2023/01/13 03:38:53;;;;;;;2.75;1.38;;;10.30;99.90;;;8.77;100.00;99583.41;4995669;28;19910;-83
2023/01/13 03:41:29;;;;;;;2.50;1.40;;;10.20;99.90;;;8.77;100.00;99586.03;4995280;28;20057;-82
2023/01/13 03:44:29;;;;;;;1.50;1.40;;;10.20;99.90;;;8.78;100.00;99586.84;4979228;28;20030;-82
2023/01/13 03:47:35;;;;;;;2.58;1.52;;;10.30;99.90;;;8.78;100.00;99586.84;4983194;28;20037;-82
2023/01/13 03:50:26;;;;;;;3.08;1.75;;;10.20;99.90;;;8.80;100.00;99590.25;4995219;28;20101;-82
2023/01/13 03:53:10;;;;;;;4.35;1.67;;;10.30;99.90;;;8.80;100.00;99606.00;5008451;28;20038;-81
2023/01/13 03:55:46;;;;;;;3.17;1.60;;;10.30;99.90;;;8.83;100.00;99611.91;4980204;28;20029;-81
2023/01/13 03:58:22;;;;;;;3.15;1.80;;;10.30;99.90;;;8.85;100.00;99618.84;4995073;28;20021;-82
2023/01/13 04:01:04;;;;;;;5.55;1.42;;;10.30;99.90;;;8.83;100.00;99606.66;4993841;28;20064;-85
2023/01/13 04:03:41;;;;;;;2.45;1.00;;;10.30;99.90;;;8.84;100.00;99612.75;4991694;28;20115;-83
2023/01/13 04:06:38;;;;;;;4.20;0.68;;;10.30;99.90;;;8.74;100.00;99615.03;5010313;28;20482;-83
2023/01/13 04:09:39;;;;;;;2.95;0.77;;;10.20;99.90;;;8.74;100.00;99609.78;5009291;28;20030;-83
2023/01/13 04:15:16;;;;;;;3.15;0.60;;;10.20;99.90;;;8.70;100.00;99621.41;4992676;28;20113;-83
2023/01/13 04:17:41;;;;;;;2.67;0.50;;;10.10;99.90;;;8.72;100.00;99619.53;4994813;28;20029;-85
2023/01/13 04:20:12;;;;;;;4.00;0.73;;;10.10;99.90;;;8.69;100.00;99624.13;4978431;28;20076;-83
2023/01/13 04:22:40;;;;;;;1.50;0.40;;;10.10;99.90;;;8.67;100.00;99631.25;4980984;28;20151;-83
2023/01/13 04:25:07;;;;;;;2.55;0.52;;;10.10;99.90;;;8.65;100.00;99628.69;4995656;28;20078;-83
2023/01/13 04:27:33;;;;;;;3.70;0.43;;;10.10;99.90;;;8.63;100.00;99630.56;4993922;28;20410;-82
2023/01/13 04:29:58;;;;;;;4.88;0.60;;;10.00;99.90;;;8.62;100.00;99631.50;4995622;28;20105;-83
2023/01/13 04:32:24;;;;;;;1.23;0.30;;;10.10;99.90;;;8.61;100.00;99635.03;4978700;28;20449;-82
2023/01/13 04:34:59;;;;;;;1.15;0.40;;;10.00;99.90;;;8.57;100.00;99637.00;4996965;28;20042;-83
2023/01/13 04:37:25;;;;;;;1.55;0.30;;;10.00;99.90;;;8.57;100.00;99633.53;4979552;28;20064;-84
2023/01/13 04:39:51;;;;;;;2.90;0.45;;;10.00;99.90;;;8.52;100.00;99618.03;4975934;28;20029;-83
2023/01/13 04:42:16;;;;;;;3.38;0.50;;;10.00;99.90;;;8.48;100.00;99632.25;4994465;28;20034;-83
2023/01/13 04:44:42;;;;;;;5.35;0.88;;;9.90;99.90;;;8.47;100.00;99634.97;4979071;28;20084;-83
2023/01/13 04:47:11;;;;;;;5.72;0.85;;;9.90;99.90;;;8.43;100.00;99639.53;4978917;28;20032;-83
2023/01/13 04:49:36;;;;;;;8.18;0.98;;;9.90;99.90;;;8.38;100.00;99641.53;4987464;28;20029;-82
2023/01/13 04:52:02;;;;;;;6.72;0.90;;;9.80;99.90;;;8.39;100.00;99651.09;4990861;28;20033;-83
2023/01/13 04:54:28;;;;;;;10.13;1.20;;;9.80;99.90;;;8.36;100.00;99657.38;5013381;28;20025;-82
2023/01/13 04:56:54;;;;;;;8.07;1.13;;;9.80;99.90;;;8.34;100.00;99653.97;5007194;28;20037;-81
2023/01/13 04:59:20;;;;;;;8.43;1.38;;;9.70;99.90;;;8.29;100.00;99653.34;4994927;28;20048;-81
2023/01/13 05:01:48;;;;;;;6.90;1.05;;;9.70;99.90;;;8.25;100.00;99662.34;4979362;28;20112;-83
2023/01/13 05:04:14;;;;;;;9.10;0.90;;;9.70;99.90;;;8.24;100.00;99668.50;4979140;28;20121;-82
2023/01/13 05:06:40;;;;;;;6.47;0.98;;;9.70;99.90;;;8.21;100.00;99673.94;4993406;28;20061;-81
2023/01/13 05:09:06;;;;;;;7.65;1.38;;;9.60;99.90;;;8.20;100.00;99670.44;4996779;28;20018;-81
2023/01/13 05:17:02;;;;;;;8.30;1.40;;;9.60;99.90;;;8.17;100.00;99669.78;4994608;28;20528;-82
2023/01/13 05:19:38;;;;;;;8.55;1.27;;;9.60;99.90;;;8.14;100.00;99664.69;4978475;28;20052;-82
2023/01/13 05:27:33;;;;;;;9.95;1.20;;;9.50;99.90;;;8.00;100.00;99673.28;4996299;28;20060;-81
2023/01/13 05:29:59;;;;;;;10.73;1.55;;;9.40;99.90;;;7.97;100.00;99678.72;4990621;28;20544;-81
2023/01/13 05:32:31;;;;;;;10.38;1.40;;;;;;;7.92;100.00;99680.69;5018396;23;20077;-81
2023/01/13 05:34:57;;;;;;;10.90;1.27;;;9.30;99.90;;;7.81;100.00;99682.09;5040011;28;20029;-82
2023/01/13 05:37:24;;;;;;;10.55;1.67;;;9.20;99.90;;;7.74;100.00;99678.13;5029971;28;20432;-80
2023/01/13 05:45:22;;;;;;;11.73;1.50;;;9.00;99.90;;;7.52;100.00;99682.78;5042589;28;20047;-82
2023/01/13 05:47:48;;;;;;;7.65;1.35;;;9.00;99.90;;;7.50;100.00;99682.84;5013104;28;20465;-82
2023/01/13 05:50:15;;;;;;;12.95;1.50;;;8.90;99.90;;;7.45;100.00;99702.31;5011814;28;20021;-79
2023/01/13 05:52:44;;;;;;;13.63;1.58;;;8.90;99.90;;;7.36;100.00;99699.25;5027492;28;20110;-82
2023/01/13 05:55:11;;;;;;;10.27;1.60;;;8.80;99.90;;;7.30;100.00;99698.69;5019040;28;20087;-82
2023/01/13 05:57:37;;;;;;;9.35;1.48;;;8.80;99.90;;;7.29;100.00;99699.63;5013230;28;20077;-80
2023/01/13 06:00:04;;;;;;;12.02;1.48;;;8.70;99.90;;;7.29;100.00;99700.47;5034092;28;20071;-83
2023/01/13 06:02:30;;;;;;;11.55;1.55;;;8.80;99.90;;;7.34;100.00;99715.94;5027620;28;20025;-82
2023/01/13 06:04:56;;;;;;;7.20;1.00;;;8.80;99.90;;;7.40;100.00;99710.41;5014009;28;20031;-82
2023/01/13 06:07:24;;;;;;;6.15;1.00;;;8.90;99.90;;;7.47;100.00;99716.19;5032272;28;20033;-81
2023/01/13 06:09:50;;;;;;;7.03;1.15;;;8.90;99.90;;;7.51;100.00;99713.31;5027888;28;20021;-82
2023/01/13 06:12:16;;;;;;;12.10;1.05;;;9.00;99.90;;;7.52;100.00;99709.81;5024928;28;20749;-82
2023/01/13 06:14:41;;;;;;;7.13;1.00;;;9.00;99.90;;;7.55;100.00;99700.94;5025951;28;20172;-80
2023/01/13 06:17:17;;;;;;;8.48;1.35;;;9.00;99.90;;;7.56;100.00;99689.56;5010352;28;20198;-82
2023/01/13 06:19:43;;;;;;;7.40;1.17;;;9.00;99.90;;;7.57;100.00;99707.78;5031760;28;20037;-81
2023/01/13 06:22:29;;;;;;;7.32;1.58;;;9.00;99.90;;;7.57;100.00;99712.19;5030020;28;20761;-82
2023/01/13 06:24:55;;;;;;;7.03;0.90;;;9.00;99.90;;;7.47;100.00;99708.31;5025584;28;20033;-80
2023/01/13 06:27:27;;;;;;;9.45;1.30;;;8.90;99.90;;;7.37;100.00;99705.34;5030672;28;20029;-82
2023/01/13 06:29:55;;;;;;;7.78;1.73;;;8.90;99.90;;;7.25;100.00;99698.06;5015620;28;20033;-80
2023/01/13 06:32:30;;;;;;;5.47;1.20;;;8.80;99.90;;;7.21;100.00;99707.00;5029023;28;20547;-84
2023/01/13 06:35:02;;;;;;;8.40;1.58;;;8.60;99.90;;;7.07;100.00;99705.06;5029328;28;20029;-82
2023/01/13 06:37:30;;;;;;;13.32;1.50;;;8.60;99.90;;;6.94;100.00;99705.66;5012761;28;20587;-82
2023/01/13 06:39:59;;;;;;;9.10;1.50;;;8.50;99.90;;;6.92;100.00;99709.25;5025253;28;20033;-81
2023/01/13 06:45:14;;;;;;;11.35;1.65;;;8.40;99.90;;;6.77;100.00;99716.91;5029341;28;20086;-82
2023/01/13 06:47:43;;;;;;;12.90;1.70;;;8.30;99.90;;;6.70;100.00;99712.06;5016344;28;20401;-82
2023/01/13 06:50:10;;;;;;;13.05;1.70;;;8.30;99.90;;;6.66;100.00;99716.56;5026128;28;20049;-82
2023/01/13 06:52:35;;;;;;;11.85;1.52;;;8.20;99.90;;;6.61;100.00;99713.31;5027345;28;20033;-82
2023/01/13 06:55:02;;;;;;;11.18;1.50;;;8.10;99.90;;;6.53;100.00;99713.66;5027049;28;20029;-81
2023/01/13 06:57:28;;;;;;;15.80;2.22;;;8.10;99.90;;;6.49;100.00;99717.34;5036047;28;20059;-82
2023/01/13 06:59:56;;;;;;;19.48;2.03;;;8.10;99.90;;;6.45;100.00;99720.16;5018243;28;20028;-82
2023/01/13 07:02:22;;;;;;;13.90;1.92;;;8.00;99.90;;;6.45;100.00;99718.41;5009724;28;20047;-85
2023/01/13 07:04:47;;;;;;;12.48;1.73;;;8.00;99.90;;;6.40;100.00;99722.16;5018758;28;20159;-84
2023/01/13 07:07:13;;;;;;;13.60;2.30;;;7.90;99.90;;;6.33;100.00;99732.03;5033391;28;20420;-81
2023/01/13 07:09:39;;;;;;;17.55;2.03;;;7.90;99.90;;;6.32;100.00;99735.56;5013693;28;20060;-84
2023/01/13 07:12:06;;;;;;;15.70;1.83;;;7.90;99.90;;;6.28;100.00;99739.22;5009397;28;20084;-81
2023/01/13 07:17:23;;;;;;;22.38;2.22;;;7.70;99.90;;;6.22;100.00;99734.25;5042956;28;20044;-87
2023/01/13 07:19:51;;;;;;;18.15;2.13;;;7.70;99.90;;;6.20;100.00;99739.59;5010718;28;20050;-82
2023/01/13 07:22:25;;;;;;;18.67;2.25;;;7.70;99.90;;;6.15;100.00;99739.78;5011627;28;20033;-85
2023/01/13 07:24:51;;;;;;;17.40;2.17;;;7.70;99.90;;;6.16;100.00;99732.78;5019356;28;20389;-84
2023/01/13 07:27:17;;;;;;;16.88;2.33;;;7.70;99.90;;;6.16;100.00;99731.03;5034148;28;20100;-81
2023/01/13 07:29:43;;;;;;;19.75;2.08;;;7.70;99.90;;;6.13;100.00;99727.69;5028306;28;20120;-84
2023/01/13 07:32:11;;;;;;;21.17;2.65;;;7.70;99.90;;;6.16;100.00;99741.47;5010922;28;20029;-85
2023/01/13 07:34:37;;;;;;;17.08;2.50;;;7.70;99.90;;;6.10;100.00;99740.91;5028527;28;20025;-82
2023/01/13 07:37:03;;;;;;;19.00;2.40;;;7.60;99.90;;;6.10;100.00;99740.91;5014082;28;20078;-81
2023/01/13 07:39:29;;;;;;;26.05;3.00;;;7.60;99.90;;;6.06;100.00;99736.72;5018773;28;20021;-83
2023/01/13 07:44:39;;;;;;;19.23;2.70;;;7.50;99.90;;;6.00;100.00;99747.44;5035917;28;20117;-82
2023/01/13 07:47:07;;;;;;;20.02;2.45;;;7.50;99.90;;;5.95;100.00;99763.31;5034444;28;20025;-83
2023/01/13 07:49:35;;;;;;;30.65;3.08;;;7.50;99.90;;;5.90;100.00;99754.81;5036642;28;20476;-81
2023/01/13 07:52:01;;;;;;;20.70;3.03;;;7.40;99.90;;;5.90;100.00;99758.25;5019525;28;20018;-83
2023/01/13 07:54:27;;;;;;;26.17;2.88;;;7.40;99.90;;;5.91;100.00;99757.31;5012003;28;20060;-85
2023/01/13 07:56:55;;;;;;;21.35;2.83;;;7.40;99.90;;;5.89;100.00;99760.94;5017009;28;20167;-84
2023/01/13 07:59:24;;;;;;;19.90;2.72;;;7.40;99.90;;;5.89;100.00;99753.94;5031202;28;20060;-85
2023/01/13 08:01:52;;;;;;;22.85;2.78;;;7.30;99.90;;;5.86;100.00;99751.47;5028832;28;20037;-85
2023/01/13 08:04:18;;;;;;;25.02;2.75;;;;;;;5.89;100.00;99759.16;5047333;28;20060;-85
2023/01/13 08:06:44;;;;;;;22.73;3.55;;;7.30;99.90;;;5.94;100.00;99762.47;5022948;28;20060;-82
2023/01/13 08:09:10;;;;;;;24.38;3.78;;;7.40;99.90;;;6.02;100.00;99758.66;5012970;28;20477;-85
2023/01/13 08:11:36;;;;;;;24.70;2.65;;;7.50;99.90;;;6.08;100.00;99755.78;5020926;28;20044;-83
2023/01/13 08:14:02;;;;;;;25.23;3.00;;;7.50;99.90;;;6.12;100.00;99758.22;5033406;28;20049;-85
2023/01/13 08:16:30;;;;;;;21.00;2.72;;;7.50;99.90;;;6.16;100.00;99761.53;5016041;28;20030;-85
2023/01/13 08:18:57;;;;;;;22.45;3.08;;;7.60;99.90;;;6.21;100.00;99763.94;5052413;28;20029;-85
2023/01/13 08:21:23;;;;;;;23.70;2.85;;;7.60;99.90;;;6.22;100.00;99760.41;5016025;28;20028;-83
2023/01/13 08:23:51;;;;;;;18.83;2.92;;;7.60;99.90;;;6.28;100.00;99766.22;5035261;28;20037;-88
2023/01/13 08:26:23;;;;;;;21.27;2.75;;;7.60;99.90;;;6.30;100.00;99758.31;5020893;28;20036;-86
2023/01/13 08:29:02;;;;;;;;;;;;;;;;;;;;;
2023/01/13 08:31:28;;;;;;;14.13;2.47;;;7.70;99.90;;;6.34;100.00;99763.34;5033221;28;20096;-84
2023/01/13 08:33:54;;;;;;;14.85;2.78;;;7.70;99.90;;;6.38;100.00;99766.66;5034319;28;20033;-85
2023/01/13 08:36:20;;;;;;;23.77;2.42;;;7.80;99.90;;;6.40;100.00;99764.84;5027640;28;20067;-85
2023/01/13 08:38:46;;;;;;;17.92;2.58;;;7.80;99.90;;;6.48;100.00;99770.56;5038523;28;20037;-85
2023/01/13 08:41:53;;;;;;;20.38;2.60;;;;;;;6.55;100.00;99779.00;5027236;28;20060;-85
2023/01/13 08:44:05;;;;;;;21.35;2.47;;;7.90;99.90;;;6.59;100.00;99780.56;5050996;28;20034;-85
2023/01/13 08:50:10;;;;;;;17.73;2.63;;;8.00;99.90;;;6.63;100.00;99792.56;5048169;28;20128;-84
2023/01/13 08:52:51;;;;;;;18.67;2.53;;;8.10;99.90;;;6.68;100.00;99795.81;5056723;28;20056;-85
2023/01/13 08:55:29;;;;;;;17.08;2.35;;;;;;;6.70;100.00;99783.53;5027748;28;20074;-83
2023/01/13 08:57:54;;;;;;;17.42;2.65;;;8.10;99.90;;;6.77;100.00;99784.09;5038922;28;20028;-82
2023/01/13 09:00:23;;;;;;;21.77;2.20;;;;;;;6.85;100.00;99781.13;5056627;28;20030;-85
2023/01/13 09:03:03;;;;;;;15.63;2.70;;;8.20;99.90;;;6.89;100.00;99785.28;5039148;28;20040;-85
2023/01/13 09:05:38;;;;;;;21.58;3.20;;;8.30;99.90;;;6.94;100.00;99784.16;5022917;28;20367;-84
2023/01/13 09:08:24;;;;;;;;;;;;;;;;;;;;;
2023/01/13 09:14:32;;;;;;;20.05;2.60;;;;;;;7.28;100.00;99795.66;5030123;28;20492;-84
2023/01/13 09:17:18;;;;;;;16.55;2.30;;;8.60;99.90;;;7.35;100.00;99807.53;5037992;28;20051;-85
2023/01/13 09:19:54;;;;;;;;;;;;;;;;;;;;;
2023/01/13 09:22:26;;;;;;;11.75;1.70;;;8.80;99.90;;;7.50;100.00;99805.09;5051220;28;20132;-84
2023/01/13 09:24:54;;;;;;;20.40;2.28;;;8.80;99.90;;;7.55;100.00;99808.34;5023404;28;20034;-83
2023/01/13 09:27:31;;;;;;;15.00;2.33;;;8.90;99.90;;;7.59;100.00;99810.72;5016624;28;20041;-84
2023/01/13 09:30:00;;;;;;;13.65;2.33;;;;;;;7.65;100.00;99806.13;5055306;28;20040;-83
2023/01/13 09:32:31;;;;;;;19.85;2.35;;;9.00;99.90;;;7.66;100.00;99810.44;5032147;28;20033;-84
2023/01/13 09:35:00;;;;;;;15.02;2.50;;;9.00;99.90;;;7.64;100.00;99807.03;5034460;28;20056;-82
2023/01/13 09:37:50;;;;;;;21.45;2.72;;;;;;;7.71;100.00;99811.03;5051815;28;20083;-85
2023/01/13 09:43:52;;;;;;;17.98;2.40;;;9.00;99.90;;;7.70;100.00;99814.59;5032031;28;20029;-83
2023/01/13 09:44:53;;;;;;;19.23;2.35;;;9.00;99.90;;;7.69;100.00;99810.28;5051316;28;20063;-85
2023/01/13 09:47:52;;;;;;;14.63;2.70;;;;;;;7.67;100.00;99806.91;5006193;28;20033;-85
2023/01/13 09:51:02;;;;;;;18.23;2.47;;;9.00;99.90;;;7.68;99.84;99808.59;5033969;28;20378;-84
2023/01/13 09:54:10;;;;;;;;;;;;;;;;;;;;;
2023/01/13 09:57:00;;;;;;;;;;;;;;;;;;;;;
2023/01/13 09:59:56;;;;;;;;;;;;;;;;;;;;;
2023/01/13 10:02:38;;;;;;;;;;;;;;;;;;;;;
2023/01/13 10:05:10;;;;;;;15.80;3.20;;;9.20;99.90;;;7.84;96.18;99796.44;5050530;28;20119;-83
2023/01/13 10:08:01;;;;;;;;;;;;;;;;;;;;;
2023/01/13 10:14:13;;;;;;;22.70;3.15;;;9.10;99.90;;;7.73;94.58;99785.63;5035534;28;20043;-84
2023/01/13 10:17:11;;;;;;;23.10;2.78;;;;;;;7.76;93.54;99785.47;5016740;28;20051;-84
2023/01/13 10:20:01;;;;;;;27.90;3.45;;;9.10;99.90;;;7.86;94.40;99791.97;5032678;28;20170;-81
2023/01/13 10:22:56;;;;;;;21.77;3.08;;;9.20;99.90;;;7.97;93.58;99780.94;5035504;28;20074;-82
2023/01/13 10:25:48;;;;;;;19.55;3.08;;;9.30;99.90;;;7.97;92.75;99767.84;4995432;28;20183;-81
2023/01/13 10:28:22;;;;;;;25.35;3.50;;;9.30;99.90;;;8.04;92.27;99765.75;5046228;28;20035;-83
2023/01/13 10:31:14;;;;;;;;;;;;;;;;;;;;;
2023/01/13 10:33:43;;;;;;;23.17;3.60;;;9.40;99.90;;;8.20;92.06;99767.47;5032883;28;20029;-80
2023/01/13 10:36:22;;;;;;;23.52;3.08;;;9.50;99.90;;;8.29;91.48;99757.44;5044159;28;20502;-82
2023/01/13 10:38:55;;;;;;;27.13;4.18;;;9.60;99.90;;;8.33;91.81;99748.47;5045268;28;20480;-82
2023/01/13 10:41:35;;;;;;;18.95;2.50;;;9.60;99.90;;;8.31;91.04;99753.78;5034727;28;20428;-82
2023/01/13 10:44:16;;;;;;;23.05;3.17;;;9.60;99.90;;;8.37;91.02;99750.84;5030009;28;20034;-81
2023/01/13 10:46:57;;;;;;;30.50;3.65;;;9.70;99.90;;;8.41;90.66;99751.56;5028414;28;20037;-82
2023/01/13 10:49:38;;;;;;;23.38;3.15;;;9.70;99.90;;;8.46;89.92;99754.78;5011678;28;20467;-82
2023/01/13 10:52:41;;;;;;;27.88;3.75;;;9.80;99.90;;;8.55;89.14;99754.31;5007026;28;20565;-83
2023/01/13 10:55:42;;;;;;;18.98;3.17;;;9.90;99.90;;;8.67;87.79;99746.72;5045254;28;20051;-80
2023/01/13 10:58:23;;;;;;;21.20;3.03;;;10.00;99.90;;;8.85;87.45;99757.97;5014218;28;20157;-81
2023/01/13 11:01:24;;;;;;;29.30;4.00;;;10.10;99.90;;;8.80;86.45;99753.81;5026787;28;20127;-81
2023/01/13 11:04:34;;;;;;;19.65;2.95;;;10.10;99.90;;;8.74;86.24;99741.03;5014976;28;20040;-82
2023/01/13 11:07:25;;;;;;;25.58;3.35;;;10.10;99.90;;;8.81;86.05;99760.78;5027784;28;20029;-83
2023/01/13 11:10:37;;;;;;;;;;;;;;;;;;;;;
2023/01/13 11:14:31;;;;;;;24.13;3.88;;;10.10;99.90;;;8.66;86.03;99743.25;5035250;28;20028;-82
2023/01/13 11:16:47;;;;;;;20.10;3.03;;;10.00;99.90;;;8.41;86.15;99733.22;5048430;28;20117;-82
2023/01/13 11:19:29;;;;;;;19.88;2.75;;;9.90;99.90;;;8.27;85.68;99743.53;5012947;28;20147;-82
2023/01/13 11:22:22;;;;;;;19.90;3.28;;;9.70;99.90;;;8.16;86.00;99744.09;5014426;28;20091;-82
2023/01/13 11:25:29;;;;;;;;;;;;;;;;;;;;;
2023/01/13 11:28:35;;;;;;;21.08;3.10;;;9.60;99.90;;;8.05;86.35;99746.44;5033498;28;20117;-81
2023/01/13 11:31:36;;;;;;;22.98;3.35;;;9.50;99.90;;;8.03;87.40;99738.66;5044751;28;20033;-84
2023/01/13 11:34:37;;;;;;;18.25;3.00;;;9.50;99.90;;;7.91;86.97;99739.31;5033289;28;20025;-83
2023/01/13 11:37:41;;;;;;;17.45;2.47;;;9.40;99.90;;;7.80;86.99;99739.84;5028660;28;20038;-82
2023/01/13 11:40:33;;;;;;;25.05;3.30;;;9.30;99.90;;;7.76;87.54;99751.41;5021287;28;20034;-82
2023/01/13 11:43:28;;;;;;;26.40;3.10;;;9.30;99.90;;;7.77;87.25;99751.31;5033467;28;20489;-82
2023/01/13 11:45:59;;;;;;;21.88;2.83;;;9.20;99.90;;;7.90;87.85;99746.31;5034300;28;20450;-82
2023/01/13 11:48:51;;;;;;;26.30;3.67;;;9.30;99.90;;;7.94;88.60;99739.97;5020843;28;20043;-82
2023/01/13 11:51:33;;;;;;;23.35;2.92;;;;;;;8.04;88.89;99742.16;5035544;28;20025;-84
2023/01/13 11:54:23;;;;;;;17.55;3.10;;;;;;;8.12;89.56;99735.56;5031865;28;20504;-84
2023/01/13 11:57:33;;;;;;;23.00;3.00;;;9.50;99.90;;;8.21;88.24;99739.50;5030572;28;20036;-83
2023/01/13 12:00:56;;;;;;;19.98;2.70;;;9.60;99.90;;;8.20;87.48;99737.78;5031495;28;20060;-82
2023/01/13 12:04:02;;;;;;;16.25;2.35;;;9.60;99.90;;;8.28;86.88;99735.59;4950417;28;20034;-82
2023/01/13 12:06:47;;;;;;;14.45;3.17;;;9.70;99.90;;;8.30;87.24;99725.88;4934256;28;20062;-83
2023/01/13 12:09:38;;;;;;;26.83;3.38;;;9.70;99.90;;;8.35;87.22;99726.47;5032388;28;20072;-83